»·PEaware :: N8671J KONP-KOTH

N8671J :: KONP-KOTH

FLIGHT INFORMATION

Flight Status: Arrived
Operator: Privately registered:
United States
More flights under this callsign
Pilot: Mike D. (17473)
Aircraft: PIPER PA-44 SEMINOLE
(PA44)
More flights by this aircraft type
Origin: KONP Newport Mun
United States
Destination: KOTH North Bend Mun
United States
More flights between these airports :: More routes between these airports
Route: ONP1 ONP V27 OTH EMIRE
File this flight plan on PilotEdge
Remarks:
Altitude:
(Current/Filed)
5,000ft
Speed:
(Current/Filed)
155kts
Departed: 16-May-18 07:29 PM
Arrived: 16-May-18 08:12 PM
Distance/Time
Traveled:
70nm/0:43
Distance/Time
To Go:
Arrived

Flight Plot

Page will automatically refresh every two minutes.

Flight plan parsing failed; only flown route is shown


Map Options




Map Legend


Flown Route
Filed Route
Departure Airport
Arrival Airport
Navaid (VOR, NDB)
Fix

Horizontal Profiles

Position Reports

Time Latitude Longitude Heading Altitude Ground
Speed
16-May-18 19:15 44.576248 -124.062711 307 165ft 0kts
16-May-18 19:16 44.576248 -124.062711 307 165ft 0kts
16-May-18 19:17 44.576248 -124.062711 307 165ft 0kts
16-May-18 19:18 44.576248 -124.062711 307 165ft 0kts
16-May-18 19:19 44.576248 -124.062711 307 165ft 0kts
16-May-18 19:20 44.576248 -124.062711 307 165ft 0kts
16-May-18 19:21 44.576248 -124.062711 307 165ft 0kts
16-May-18 19:22 44.576248 -124.062711 307 165ft 0kts
16-May-18 19:23 44.576248 -124.062711 307 165ft 0kts
16-May-18 19:24 44.576248 -124.062711 307 165ft 0kts
16-May-18 19:25 44.576248 -124.062711 307 165ft 0kts
16-May-18 19:26 44.574799 -124.062897 130 165ft 17kts
16-May-18 19:27 44.572410 -124.059345 136 165ft 0kts
16-May-18 19:28 44.572386 -124.058447 355 165ft 7kts
16-May-18 19:29 44.588299 -124.069681 255 1368ft 92kts
16-May-18 19:30 44.559664 -124.072619 126 2721ft 121kts
16-May-18 19:31 44.567350 -124.039359 334 3674ft 99kts
16-May-18 19:32 44.560076 -124.061560 175 4375ft 118kts
16-May-18 19:33 44.526381 -124.065113 187 4992ft 130kts
16-May-18 19:34 44.492498 -124.068530 185 5002ft 157kts
16-May-18 19:35 44.447723 -124.072692 185 5000ft 164kts
16-May-18 19:36 44.402049 -124.077001 185 5000ft 165kts
16-May-18 19:37 44.356266 -124.081317 185 5000ft 165kts
16-May-18 19:38 44.310341 -124.085640 185 5000ft 165kts
16-May-18 19:39 44.264499 -124.089946 185 5000ft 165kts
16-May-18 19:40 44.218634 -124.094247 185 5000ft 165kts
16-May-18 19:41 44.172785 -124.098542 185 5001ft 166kts
16-May-18 19:42 44.125850 -124.102912 185 5000ft 171kts
16-May-18 19:43 44.078309 -124.107362 185 5000ft 172kts
16-May-18 19:44 44.030700 -124.111798 185 4999ft 172kts
16-May-18 19:45 43.983065 -124.116231 185 4999ft 172kts
16-May-18 19:46 43.935212 -124.120675 185 4996ft 172kts
16-May-18 19:47 43.888299 -124.125028 185 4992ft 172kts
16-May-18 19:48 43.840480 -124.129465 186 4990ft 172kts
16-May-18 19:49 43.792637 -124.133893 186 4990ft 172kts
16-May-18 19:50 43.744936 -124.138293 186 4989ft 170kts
16-May-18 19:51 43.698144 -124.142619 186 4989ft 166kts
16-May-18 19:52 43.652399 -124.146840 186 4989ft 162kts
16-May-18 19:53 43.608244 -124.150912 186 4990ft 157kts
16-May-18 19:54 43.564663 -124.154907 186 4990ft 156kts
16-May-18 19:55 43.521388 -124.158873 186 4990ft 156kts
16-May-18 19:56 43.478371 -124.162798 186 4989ft 152kts
16-May-18 19:57 43.436877 -124.166595 186 4990ft 148kts
16-May-18 19:58 43.420396 -124.201933 312 4665ft 139kts
16-May-18 19:59 43.415038 -124.254283 248 4014ft 154kts
16-May-18 20:00 43.389942 -124.301857 222 3448ft 148kts
16-May-18 20:01 43.370685 -124.350591 249 2813ft 148kts
16-May-18 20:02 43.347176 -124.395859 210 2335ft 149kts
16-May-18 20:03 43.309540 -124.410048 196 2239ft 126kts
16-May-18 20:04 43.279702 -124.423301 245 2044ft 104kts
16-May-18 20:05 43.293662 -124.439307 14 2029ft 93kts
16-May-18 20:06 43.319819 -124.427214 15 2032ft 104kts
16-May-18 20:07 43.347591 -124.413475 27 2029ft 108kts
16-May-18 20:08 43.366120 -124.378998 58 1990ft 114kts
16-May-18 20:09 43.381855 -124.340581 57 1379ft 116kts
16-May-18 20:10 43.396055 -124.306010 56 804ft 96kts
16-May-18 20:11 43.408940 -124.274693 56 291ft 93kts
16-May-18 20:12 43.418216 -124.251730 92 22ft 7kts
16-May-18 20:13 43.417632 -124.251138 146 22ft 2kts
16-May-18 20:14 43.418553 -124.248205 62 22ft 13kts
16-May-18 20:15 43.417744 -124.247185 140 22ft 4kts

Navigation Log

Ident Type
Flight plan parsing failed, navigation log unavailable